createdAt,value
2022-09-21T00:04:29.719Z,6.85
2022-09-21T00:09:33.338Z,7.23
2022-09-21T00:14:36.984Z,7.15
2022-09-21T00:19:42.047Z,6.70
2022-09-21T00:24:45.750Z,6.90
2022-09-21T00:29:49.565Z,6.72
2022-09-21T00:34:54.974Z,6.90
2022-09-21T00:39:58.736Z,6.53
2022-09-21T00:45:02.462Z,6.40
2022-09-21T00:50:11.615Z,7.35
2022-09-21T00:55:22.318Z,7.00
2022-09-21T01:00:26.171Z,6.93
2022-09-21T01:05:31.581Z,6.07
2022-09-21T01:10:48.609Z,6.25
2022-09-21T01:16:03.477Z,7.60
2022-09-21T01:21:24.265Z,7.05
2022-09-21T01:26:45.469Z,7.05
2022-09-21T01:31:56.630Z,7.70
2022-09-21T01:37:07.566Z,7.88
2022-09-21T01:42:13.454Z,7.38
2022-09-21T01:52:32.374Z,8.32
2022-09-21T01:57:44.017Z,7.53
2022-09-21T02:02:53.161Z,7.38
2022-09-21T02:07:58.417Z,6.93
2022-09-21T02:13:07.027Z,7.33
2022-09-21T02:18:23.009Z,6.68
2022-09-21T02:23:34.236Z,7.40
2022-09-21T02:28:44.756Z,6.90
2022-09-21T02:33:59.775Z,7.97
2022-09-21T02:39:08.452Z,8.30
2022-09-21T02:44:16.625Z,9.27
2022-09-21T02:49:26.956Z,8.77
2022-09-21T02:54:33.495Z,7.43
2022-09-21T02:59:37.165Z,8.20
2022-09-21T03:04:43.551Z,8.30
2022-09-21T03:09:47.300Z,7.75
2022-09-21T03:14:51.361Z,7.65
2022-09-21T03:19:56.650Z,6.95
2022-09-21T03:25:00.289Z,8.10
2022-09-21T03:30:04.199Z,7.82
2022-09-21T03:35:09.913Z,8.20
2022-09-21T03:40:13.744Z,8.27
2022-09-21T03:45:17.546Z,7.65
2022-09-21T03:50:22.548Z,7.50
2022-09-21T03:55:27.477Z,7.97
2022-09-21T04:00:31.603Z,7.43
2022-09-21T04:05:36.604Z,7.88
2022-09-21T04:10:42.746Z,8.07
2022-09-21T04:15:46.413Z,7.88
2022-09-21T04:20:51.710Z,7.53
2022-09-21T04:25:58.065Z,8.37
2022-09-21T04:31:01.917Z,7.97
2022-09-21T04:36:08.021Z,6.82
2022-09-21T04:41:11.898Z,7.32
2022-09-21T04:46:17.702Z,7.68
2022-09-21T04:56:26.277Z,7.70
2022-09-21T05:01:30.001Z,7.60
2022-09-21T05:06:35.519Z,6.93
2022-09-21T05:11:40.471Z,7.57
2022-09-21T05:16:44.244Z,7.22
2022-09-21T05:21:49.203Z,7.63
2022-09-21T05:26:52.956Z,8.27
2022-09-21T05:32:02.637Z,7.38
2022-09-21T05:37:15.233Z,8.27
2022-09-21T05:42:19.390Z,7.78
2022-09-21T05:47:27.544Z,7.07
2022-09-21T05:52:40.643Z,7.82
2022-09-21T05:57:52.361Z,7.95
2022-09-21T06:03:16.926Z,7.78
2022-09-21T06:08:22.685Z,8.45
2022-09-21T06:13:26.667Z,6.93
2022-09-21T06:18:30.317Z,7.80
2022-09-21T06:23:36.029Z,8.30
2022-09-21T06:28:39.719Z,8.25
2022-09-21T06:33:48.018Z,8.48
2022-09-21T06:38:54.240Z,8.38
2022-09-21T06:43:58.045Z,7.90
2022-09-21T06:49:01.988Z,7.05
2022-09-21T06:54:07.051Z,7.72
2022-09-21T06:59:15.233Z,8.10
2022-09-21T07:04:21.967Z,8.43
2022-09-21T07:14:53.781Z,7.80
2022-09-21T07:19:57.464Z,7.72
2022-09-21T07:25:02.737Z,7.13
2022-09-21T07:30:07.974Z,8.73
2022-09-21T07:35:12.093Z,8.80
2022-09-21T07:40:19.853Z,8.48
2022-09-21T07:45:25.840Z,8.05
2022-09-21T07:50:29.680Z,7.68
2022-09-21T07:55:34.752Z,7.35
2022-09-21T08:00:38.653Z,7.20
2022-09-21T08:05:42.317Z,8.45
2022-09-21T08:10:47.285Z,7.05
2022-09-21T08:15:59.230Z,6.17
2022-09-21T08:21:03.539Z,6.13
2022-09-21T08:26:09.084Z,7.03
2022-09-21T08:31:12.985Z,6.70
2022-09-21T08:40:27.317Z,6.85
2022-09-21T08:45:34.906Z,7.68
2022-09-21T08:50:42.500Z,6.93
2022-09-21T08:55:47.618Z,7.35
2022-09-21T09:01:06.150Z,6.95
2022-09-21T09:06:17.577Z,7.32
2022-09-21T09:11:34.935Z,7.30
2022-09-21T09:16:47.844Z,6.80
2022-09-21T09:21:51.594Z,7.22
2022-09-21T09:27:04.423Z,8.10
2022-09-21T09:32:16.910Z,7.43
2022-09-21T09:37:26.166Z,6.60
2022-09-21T09:42:44.595Z,7.00
2022-09-21T09:48:17.718Z,6.63
2022-09-21T09:53:24.601Z,6.55
2022-09-21T09:58:39.290Z,6.45
2022-09-21T10:03:43.075Z,5.75
2022-09-21T10:08:47.806Z,5.22
2022-09-21T10:13:54.041Z,4.70
2022-09-21T10:19:01.683Z,5.50
2022-09-21T10:24:08.720Z,3.75
2022-09-21T10:29:30.294Z,5.38
2022-09-21T10:34:36.621Z,3.88
2022-09-21T10:39:47.839Z,3.15
2022-09-21T10:45:05.251Z,4.22
2022-09-21T10:50:24.776Z,4.18
2022-09-21T10:55:32.163Z,4.82
2022-09-21T11:00:43.794Z,4.63
2022-09-21T11:05:51.974Z,4.00
2022-09-21T11:11:10.016Z,4.30
2022-09-21T11:16:22.907Z,3.90
2022-09-21T11:21:36.377Z,4.55
2022-09-21T11:26:45.452Z,7.30
2022-09-21T11:32:06.053Z,6.30
2022-09-21T11:37:20.048Z,4.80
2022-09-21T11:42:42.945Z,5.25
2022-09-21T11:48:07.013Z,4.95
2022-09-21T11:53:38.258Z,4.07
2022-09-21T12:27:49.992Z,3.95
2022-09-21T12:33:00.764Z,9.00
2022-09-21T12:38:13.756Z,4.68
2022-09-21T12:43:29.615Z,4.00
2022-09-21T12:48:35.165Z,3.60
2022-09-21T12:53:44.509Z,3.55
2022-09-21T12:59:08.114Z,3.90
2022-09-21T13:04:26.697Z,3.90
2022-09-21T13:09:32.178Z,3.80
2022-09-21T13:14:44.605Z,3.80
2022-09-21T13:19:58.692Z,4.80
2022-09-21T13:25:06.185Z,3.72
2022-09-21T13:30:35.760Z,3.65
2022-09-21T13:36:04.832Z,4.68
2022-09-21T13:41:40.251Z,3.83
2022-09-21T13:46:57.692Z,4.57
2022-09-21T13:52:05.127Z,3.38
2022-09-21T13:57:22.307Z,3.60
2022-09-21T14:02:33.194Z,3.50
2022-09-21T14:12:49.670Z,3.67
2022-09-21T14:18:20.737Z,3.92
2022-09-21T14:23:29.765Z,3.95
2022-09-21T14:28:38.544Z,3.67
2022-09-21T14:33:48.287Z,4.10
2022-09-21T14:38:58.259Z,4.35
2022-09-21T14:44:02.504Z,4.40
2022-09-21T14:49:25.076Z,3.75
2022-09-21T14:54:38.632Z,2.90
2022-09-21T15:00:08.479Z,3.25
2022-09-21T15:05:24.441Z,2.80
2022-09-21T15:10:55.015Z,3.03
2022-09-21T15:16:09.852Z,3.50
2022-09-21T15:21:24.293Z,2.83
2022-09-21T15:26:34.522Z,3.47
2022-09-21T15:31:40.783Z,3.90
2022-09-21T15:36:52.199Z,4.70
2022-09-21T15:42:18.068Z,5.20
2022-09-21T15:47:26.163Z,4.32
2022-09-21T15:52:37.954Z,3.72
2022-09-21T15:57:43.954Z,3.30
2022-09-21T16:03:04.673Z,3.90
2022-09-21T16:08:22.618Z,3.63
2022-09-21T16:13:44.264Z,4.13
2022-09-21T16:18:51.112Z,8.20
2022-09-21T16:23:58.304Z,5.82
2022-09-21T16:29:23.602Z,4.00
2022-09-21T16:34:36.832Z,4.47
2022-09-21T16:39:42.303Z,4.60
2022-09-21T16:44:47.134Z,8.52
2022-09-21T16:49:51.160Z,6.28
2022-09-21T16:54:58.690Z,18.50
2022-09-21T17:00:02.970Z,12.88
2022-09-21T17:05:08.275Z,9.07
2022-09-21T17:10:16.481Z,6.37
2022-09-21T17:15:20.386Z,6.55
2022-09-21T17:20:30.004Z,5.03
2022-09-21T17:25:36.847Z,5.03
2022-09-21T17:30:42.592Z,5.32
2022-09-21T17:35:46.979Z,4.72
2022-09-21T17:40:52.914Z,5.28
2022-09-21T17:46:03.955Z,5.28
2022-09-21T17:51:09.027Z,5.30
2022-09-21T17:56:26.717Z,5.78
2022-09-21T18:01:33.887Z,11.65
2022-09-21T18:06:38.581Z,7.93
2022-09-21T18:12:02.815Z,6.60
2022-09-21T18:17:23.756Z,6.25
2022-09-21T18:22:35.715Z,5.63
2022-09-21T18:27:41.436Z,6.57
2022-09-21T18:32:59.017Z,6.63
2022-09-21T18:38:17.083Z,6.05
2022-09-21T18:43:30.750Z,6.70
2022-09-21T18:48:51.739Z,5.93
2022-09-21T18:53:57.141Z,6.50
2022-09-21T18:59:03.009Z,6.18
2022-09-21T19:04:07.768Z,5.53
2022-09-21T19:09:21.914Z,5.80
2022-09-21T19:14:38.427Z,5.35
2022-09-21T19:19:56.617Z,5.15
2022-09-21T19:25:08.615Z,7.40
2022-09-21T19:30:15.115Z,6.13
2022-09-21T19:35:22.956Z,5.63
2022-09-21T19:40:29.974Z,5.40
2022-09-21T19:45:46.202Z,5.25
2022-09-21T19:50:54.748Z,5.05
2022-09-21T19:56:17.204Z,4.72
2022-09-21T20:01:22.957Z,5.03
2022-09-21T20:11:43.078Z,6.05
2022-09-21T20:16:53.208Z,9.15
2022-09-21T20:22:04.943Z,5.78
2022-09-21T20:27:21.227Z,5.90
2022-09-21T20:32:26.551Z,5.57
2022-09-21T20:37:30.362Z,6.05
2022-09-21T20:42:38.312Z,14.05
2022-09-21T20:47:43.842Z,10.90
2022-09-21T20:52:47.846Z,6.55
2022-09-21T20:57:51.553Z,5.80
2022-09-21T21:02:58.667Z,5.25
2022-09-21T21:08:03.383Z,5.25
2022-09-21T21:13:07.274Z,4.95
2022-09-21T21:18:12.826Z,4.38
2022-09-21T21:23:16.473Z,5.25
2022-09-21T21:28:20.822Z,5.20
2022-09-21T21:33:25.975Z,6.38
2022-09-21T21:38:29.645Z,6.90
2022-09-21T21:43:34.451Z,5.45
2022-09-21T21:48:40.876Z,5.38
2022-09-21T21:53:45.521Z,5.57
2022-09-21T21:58:53.340Z,5.07
2022-09-21T22:03:59.913Z,4.22
2022-09-21T22:09:05.433Z,4.85
2022-09-21T22:14:09.657Z,4.35
2022-09-21T22:19:14.775Z,4.32
2022-09-21T22:24:18.712Z,4.40
2022-09-21T22:29:22.425Z,4.03
2022-09-21T22:34:27.492Z,4.75
2022-09-21T22:39:32.286Z,4.30
2022-09-21T22:44:35.986Z,4.00
2022-09-21T22:49:41.045Z,4.28
2022-09-21T22:54:44.734Z,4.13
2022-09-21T22:59:48.638Z,4.70
2022-09-21T23:04:53.600Z,4.32
2022-09-21T23:09:57.381Z,3.73
2022-09-21T23:15:01.063Z,3.70
2022-09-21T23:20:07.102Z,4.70
2022-09-21T23:30:14.458Z,4.00
2022-09-21T23:35:19.556Z,3.92
2022-09-21T23:40:23.266Z,4.00
2022-09-21T23:45:26.884Z,4.47
2022-09-21T23:50:32.092Z,3.30
2022-09-21T23:55:35.758Z,3.53
